Suula — OJKZ — position and weather

sailwx.info

Track history (hours):
 
Tides and Currents Weather Stations Pressure Air Temp Water Temp Dewpoint Dewpoint Depression Visibility Wind Speed Wind Dir Waves Ship Positions

Suula

Last reported at 2015-May-25 22:24 UTC. Time now 2015-May-30 12:28 UTC.
Position N 59°34' E 020°56'.

Length 140 m; draft 6.5 m.

Type: Tanker. MMSI: 230956996.

Date/timePositionNaut miles runAvg speedWind from/ knotsBaromVisibWave heightAir tempDewpointWater temp
2015-May-25 22:24N 59°34' E 020°56'1113.4
2015-May-25 21:34N 59°32' E 021°18'1313.4
2015-May-25 20:33N 59°31' E 021°45'4213.5
2015-May-25 17:28N 59°38' E 023°06'1213.5
2015-May-25 16:33N 59°40' E 023°29'1413.6
2015-May-25 15:33N 59°44' E 023°56'1613.5
2015-May-25 14:22N 59°48' E 024°26'1313.5
2015-May-25 13:23N 59°51' E 024°52'1613.5
2015-May-25 12:09N 59°57' E 025°23'812.7
2015-May-25 11:30N 60°03' E 025°34'16 5.2
2015-May-25 08:29N 60°19' E 025°33'0 0.0
2015-May-25 03:16N 60°19' E 025°33'0 0.0
2015-May-25 02:28N 60°19' E 025°33'0 0.0
2015-May-25 01:31N 60°19' E 025°33'0 0.0
2015-May-25 00:28N 60°19' E 025°33'0 0.0
2015-May-24 23:28N 60°19' E 025°33'0 0.0
2015-May-24 22:13N 60°19' E 025°33'0 0.0
2015-May-24 21:31N 60°19' E 025°33'0 0.0
2015-May-24 20:22N 60°19' E 025°33'0 0.0
2015-May-24 19:13N 60°19' E 025°33'8 0.9
2015-May-24 10:29N 60°11' E 025°36'8 0.2
2015-May-22 23:08N 60°19' E 025°33'42 2.7
2015-May-22 07:33N 59°46' E 024°43'1312.7
2015-May-22 06:33N 59°43' E 024°18'9 7.2
2015-May-22 05:17N 59°40' E 024°01'1115.7
2015-May-22 04:33N 59°37' E 023°39'1515.6
2015-May-22 03:33N 59°32' E 023°10'5613.9
2015-May-21 23:34N 59°40' E 021°21'1313.4
2015-May-21 22:33N 59°53' E 021°30'5 0.4
2015-May-21 10:04N 59°56' E 021°38'4 1.6
2015-May-21 07:28N 59°53' E 021°32'1314.0
2015-May-21 06:33N 59°42' E 021°20'1716.7
2015-May-21 05:33N 59°25' E 021°20'  
2015-May-17 13:17N 59°37' E 023°13'1012.3
2015-May-17 12:27N 59°40' E 023°32'1112.5
2015-May-17 11:33N 59°43' E 023°54'1212.6
2015-May-17 10:33N 59°47' E 024°17'1512.5
2015-May-17 09:23N 59°50' E 024°46'5 0.2
2015-May-16 07:31N 59°47' E 024°53'1414.2
2015-May-16 06:34N 59°44' E 024°27'1715.9
2015-May-16 05:31N 59°39' E 023°56'1616.5
2015-May-16 04:33N 59°34' E 023°26'  
Track history (hours):
 
Tides and Currents Weather Stations Pressure Air Temp Water Temp Dewpoint Dewpoint Depression Visibility Wind Speed Wind Dir Waves Ship Positions

Suula

Last reported at 2015-May-25 22:24 UTC. Time now 2015-May-30 12:28 UTC.
Position N 59°34' E 020°56'.

Length 140 m; draft 6.5 m.

Type: Tanker. MMSI: 230956996.

Date/timePositionNaut miles runAvg speedWind from/ knotsBaromVisibWave heightAir tempDewpointWater temp
2015-May-25 22:24N 59°34' E 020°56'1113.4
2015-May-25 21:34N 59°32' E 021°18'1313.4
2015-May-25 20:33N 59°31' E 021°45'4213.5
2015-May-25 17:28N 59°38' E 023°06'1213.5
2015-May-25 16:33N 59°40' E 023°29'1413.6
2015-May-25 15:33N 59°44' E 023°56'1613.5
2015-May-25 14:22N 59°48' E 024°26'1313.5
2015-May-25 13:23N 59°51' E 024°52'1613.5
2015-May-25 12:09N 59°57' E 025°23'812.7
2015-May-25 11:30N 60°03' E 025°34'16 5.2
2015-May-25 08:29N 60°19' E 025°33'0 0.0
2015-May-25 03:16N 60°19' E 025°33'0 0.0
2015-May-25 02:28N 60°19' E 025°33'0 0.0
2015-May-25 01:31N 60°19' E 025°33'0 0.0
2015-May-25 00:28N 60°19' E 025°33'0 0.0
2015-May-24 23:28N 60°19' E 025°33'0 0.0
2015-May-24 22:13N 60°19' E 025°33'0 0.0
2015-May-24 21:31N 60°19' E 025°33'0 0.0
2015-May-24 20:22N 60°19' E 025°33'0 0.0
2015-May-24 19:13N 60°19' E 025°33'8 0.9
2015-May-24 10:29N 60°11' E 025°36'8 0.2
2015-May-22 23:08N 60°19' E 025°33'42 2.7
2015-May-22 07:33N 59°46' E 024°43'1312.7
2015-May-22 06:33N 59°43' E 024°18'9 7.2
2015-May-22 05:17N 59°40' E 024°01'1115.7
2015-May-22 04:33N 59°37' E 023°39'1515.6
2015-May-22 03:33N 59°32' E 023°10'5613.9
2015-May-21 23:34N 59°40' E 021°21'1313.4
2015-May-21 22:33N 59°53' E 021°30'5 0.4
2015-May-21 10:04N 59°56' E 021°38'4 1.6
2015-May-21 07:28N 59°53' E 021°32'1314.0
2015-May-21 06:33N 59°42' E 021°20'1716.7
2015-May-21 05:33N 59°25' E 021°20'  
2015-May-17 13:17N 59°37' E 023°13'1012.3
2015-May-17 12:27N 59°40' E 023°32'1112.5
2015-May-17 11:33N 59°43' E 023°54'1212.6
2015-May-17 10:33N 59°47' E 024°17'1512.5
2015-May-17 09:23N 59°50' E 024°46'5 0.2
2015-May-16 07:31N 59°47' E 024°53'1414.2
2015-May-16 06:34N 59°44' E 024°27'1715.9
2015-May-16 05:31N 59°39' E 023°56'1616.5
2015-May-16 04:33N 59°34' E 023°26'  

Dump ship's entire track history